sensor_id;sensor_type;location;lat;lon;timestamp;P1;durP1;ratioP1;P2;durP2;ratioP2
8279;SDS011;8335;42.646;23.380;2023-07-20T00:01:29;7.85;;;3.03;;
8279;SDS011;8335;42.646;23.380;2023-07-20T00:03:55;7.70;;;2.90;;
8279;SDS011;8335;42.646;23.380;2023-07-20T00:06:22;8.20;;;2.70;;
8279;SDS011;8335;42.646;23.380;2023-07-20T00:08:54;5.88;;;2.63;;
8279;SDS011;8335;42.646;23.380;2023-07-20T00:11:21;7.50;;;2.75;;
8279;SDS011;8335;42.646;23.380;2023-07-20T00:13:48;6.93;;;2.80;;
8279;SDS011;8335;42.646;23.380;2023-07-20T00:16:14;9.07;;;2.95;;
8279;SDS011;8335;42.646;23.380;2023-07-20T00:18:41;9.65;;;3.78;;
8279;SDS011;8335;42.646;23.380;2023-07-20T00:21:08;8.80;;;2.97;;
8279;SDS011;8335;42.646;23.380;2023-07-20T00:23:35;14.10;;;3.13;;
8279;SDS011;8335;42.646;23.380;2023-07-20T00:26:03;5.30;;;2.80;;
8279;SDS011;8335;42.646;23.380;2023-07-20T00:28:30;6.70;;;2.95;;
8279;SDS011;8335;42.646;23.380;2023-07-20T00:30:58;9.25;;;3.22;;
8279;SDS011;8335;42.646;23.380;2023-07-20T00:33:25;6.88;;;3.05;;
8279;SDS011;8335;42.646;23.380;2023-07-20T00:35:52;8.85;;;3.30;;
8279;SDS011;8335;42.646;23.380;2023-07-20T00:38:19;9.13;;;3.25;;
8279;SDS011;8335;42.646;23.380;2023-07-20T00:40:46;8.23;;;2.92;;
8279;SDS011;8335;42.646;23.380;2023-07-20T00:43:15;10.50;;;3.20;;
8279;SDS011;8335;42.646;23.380;2023-07-20T00:45:42;6.38;;;3.30;;
8279;SDS011;8335;42.646;23.380;2023-07-20T00:48:10;9.23;;;3.35;;
8279;SDS011;8335;42.646;23.380;2023-07-20T00:50:37;9.52;;;3.47;;
8279;SDS011;8335;42.646;23.380;2023-07-20T00:53:06;8.90;;;3.03;;
8279;SDS011;8335;42.646;23.380;2023-07-20T00:55:34;8.55;;;3.20;;
8279;SDS011;8335;42.646;23.380;2023-07-20T00:58:01;5.90;;;2.95;;
8279;SDS011;8335;42.646;23.380;2023-07-20T01:00:29;9.55;;;3.15;;
8279;SDS011;8335;42.646;23.380;2023-07-20T01:02:56;5.50;;;3.03;;
8279;SDS011;8335;42.646;23.380;2023-07-20T01:05:24;8.25;;;3.25;;
8279;SDS011;8335;42.646;23.380;2023-07-20T01:08:00;10.27;;;3.22;;
8279;SDS011;8335;42.646;23.380;2023-07-20T01:10:36;8.43;;;2.85;;
8279;SDS011;8335;42.646;23.380;2023-07-20T01:13:06;7.80;;;2.90;;
8279;SDS011;8335;42.646;23.380;2023-07-20T01:15:37;9.38;;;3.25;;
8279;SDS011;8335;42.646;23.380;2023-07-20T01:18:04;5.72;;;2.75;;
8279;SDS011;8335;42.646;23.380;2023-07-20T01:20:31;9.35;;;3.35;;
8279;SDS011;8335;42.646;23.380;2023-07-20T01:23:15;7.57;;;2.45;;
8279;SDS011;8335;42.646;23.380;2023-07-20T01:26:19;9.73;;;2.83;;
8279;SDS011;8335;42.646;23.380;2023-07-20T01:29:12;7.57;;;2.85;;
8279;SDS011;8335;42.646;23.380;2023-07-20T01:31:50;8.32;;;2.65;;
8279;SDS011;8335;42.646;23.380;2023-07-20T01:34:19;10.10;;;2.60;;
8279;SDS011;8335;42.646;23.380;2023-07-20T01:36:48;8.90;;;2.80;;
8279;SDS011;8335;42.646;23.380;2023-07-20T01:39:19;12.68;;;3.30;;
8279;SDS011;8335;42.646;23.380;2023-07-20T01:41:47;10.23;;;2.78;;
8279;SDS011;8335;42.646;23.380;2023-07-20T01:44:14;10.32;;;2.50;;
8279;SDS011;8335;42.646;23.380;2023-07-20T01:46:41;6.90;;;2.85;;
8279;SDS011;8335;42.646;23.380;2023-07-20T01:49:09;7.10;;;2.75;;
8279;SDS011;8335;42.646;23.380;2023-07-20T01:51:36;11.65;;;3.22;;
8279;SDS011;8335;42.646;23.380;2023-07-20T01:54:03;11.73;;;3.85;;
8279;SDS011;8335;42.646;23.380;2023-07-20T01:56:30;8.85;;;3.03;;
8279;SDS011;8335;42.646;23.380;2023-07-20T01:58:57;6.20;;;2.80;;
8279;SDS011;8335;42.646;23.380;2023-07-20T02:01:23;8.80;;;3.05;;
8279;SDS011;8335;42.646;23.380;2023-07-20T02:03:50;5.68;;;2.80;;
8279;SDS011;8335;42.646;23.380;2023-07-20T02:06:18;13.60;;;3.20;;
8279;SDS011;8335;42.646;23.380;2023-07-20T02:08:45;9.63;;;2.83;;
8279;SDS011;8335;42.646;23.380;2023-07-20T02:11:12;7.13;;;2.78;;
8279;SDS011;8335;42.646;23.380;2023-07-20T02:13:38;5.13;;;2.78;;
8279;SDS011;8335;42.646;23.380;2023-07-20T02:16:05;7.18;;;3.10;;
8279;SDS011;8335;42.646;23.380;2023-07-20T02:18:32;14.18;;;3.85;;
8279;SDS011;8335;42.646;23.380;2023-07-20T02:21:00;9.38;;;3.35;;
8279;SDS011;8335;42.646;23.380;2023-07-20T02:23:28;5.80;;;2.95;;
8279;SDS011;8335;42.646;23.380;2023-07-20T02:25:55;9.38;;;3.38;;
8279;SDS011;8335;42.646;23.380;2023-07-20T02:28:22;14.23;;;3.50;;
8279;SDS011;8335;42.646;23.380;2023-07-20T02:30:48;10.13;;;3.22;;
8279;SDS011;8335;42.646;23.380;2023-07-20T02:33:15;11.80;;;3.47;;
8279;SDS011;8335;42.646;23.380;2023-07-20T02:35:42;18.77;;;3.45;;
8279;SDS011;8335;42.646;23.380;2023-07-20T02:38:09;14.43;;;3.88;;
8279;SDS011;8335;42.646;23.380;2023-07-20T02:40:37;7.60;;;3.83;;
8279;SDS011;8335;42.646;23.380;2023-07-20T02:43:04;9.63;;;3.17;;
8279;SDS011;8335;42.646;23.380;2023-07-20T02:45:30;8.75;;;3.58;;
8279;SDS011;8335;42.646;23.380;2023-07-20T02:47:57;11.18;;;3.72;;
8279;SDS011;8335;42.646;23.380;2023-07-20T02:50:24;11.70;;;4.72;;
8279;SDS011;8335;42.646;23.380;2023-07-20T02:52:51;9.77;;;4.88;;
8279;SDS011;8335;42.646;23.380;2023-07-20T02:55:17;10.65;;;3.72;;
8279;SDS011;8335;42.646;23.380;2023-07-20T02:57:45;5.55;;;3.42;;
8279;SDS011;8335;42.646;23.380;2023-07-20T03:00:12;7.38;;;3.80;;
8279;SDS011;8335;42.646;23.380;2023-07-20T03:02:41;13.43;;;3.97;;
8279;SDS011;8335;42.646;23.380;2023-07-20T03:05:08;9.40;;;3.90;;
8279;SDS011;8335;42.646;23.380;2023-07-20T03:07:35;10.25;;;3.97;;
8279;SDS011;8335;42.646;23.380;2023-07-20T03:10:03;10.43;;;3.88;;
8279;SDS011;8335;42.646;23.380;2023-07-20T03:12:32;9.60;;;3.95;;
8279;SDS011;8335;42.646;23.380;2023-07-20T03:15:00;10.73;;;4.07;;
8279;SDS011;8335;42.646;23.380;2023-07-20T03:17:27;12.32;;;4.13;;
8279;SDS011;8335;42.646;23.380;2023-07-20T03:19:54;7.78;;;3.63;;
8279;SDS011;8335;42.646;23.380;2023-07-20T03:22:21;7.20;;;3.47;;
8279;SDS011;8335;42.646;23.380;2023-07-20T03:24:49;8.32;;;4.30;;
8279;SDS011;8335;42.646;23.380;2023-07-20T03:27:16;5.97;;;3.42;;
8279;SDS011;8335;42.646;23.380;2023-07-20T03:29:43;11.07;;;4.55;;
8279;SDS011;8335;42.646;23.380;2023-07-20T03:32:11;11.00;;;3.70;;
8279;SDS011;8335;42.646;23.380;2023-07-20T03:34:38;10.77;;;4.13;;
8279;SDS011;8335;42.646;23.380;2023-07-20T03:37:05;11.85;;;3.92;;
8279;SDS011;8335;42.646;23.380;2023-07-20T03:39:32;14.55;;;3.90;;
8279;SDS011;8335;42.646;23.380;2023-07-20T03:41:58;9.98;;;4.28;;
8279;SDS011;8335;42.646;23.380;2023-07-20T03:44:25;14.13;;;3.90;;
8279;SDS011;8335;42.646;23.380;2023-07-20T03:46:52;12.68;;;4.45;;
8279;SDS011;8335;42.646;23.380;2023-07-20T03:49:21;16.42;;;4.88;;
8279;SDS011;8335;42.646;23.380;2023-07-20T03:51:47;13.93;;;4.72;;
8279;SDS011;8335;42.646;23.380;2023-07-20T03:54:14;8.15;;;4.45;;
8279;SDS011;8335;42.646;23.380;2023-07-20T03:56:41;15.88;;;4.22;;
8279;SDS011;8335;42.646;23.380;2023-07-20T03:59:08;16.15;;;4.32;;
8279;SDS011;8335;42.646;23.380;2023-07-20T04:01:34;11.10;;;4.07;;
8279;SDS011;8335;42.646;23.380;2023-07-20T04:04:04;11.52;;;4.40;;
8279;SDS011;8335;42.646;23.380;2023-07-20T04:06:34;9.43;;;4.22;;
8279;SDS011;8335;42.646;23.380;2023-07-20T04:09:00;11.68;;;3.50;;
8279;SDS011;8335;42.646;23.380;2023-07-20T04:11:27;10.48;;;3.75;;
8279;SDS011;8335;42.646;23.380;2023-07-20T04:13:54;9.15;;;3.72;;
8279;SDS011;8335;42.646;23.380;2023-07-20T04:16:21;13.60;;;3.92;;
8279;SDS011;8335;42.646;23.380;2023-07-20T04:18:48;8.60;;;4.00;;
8279;SDS011;8335;42.646;23.380;2023-07-20T04:21:15;10.63;;;3.92;;
8279;SDS011;8335;42.646;23.380;2023-07-20T04:23:43;6.80;;;3.30;;
8279;SDS011;8335;42.646;23.380;2023-07-20T04:26:10;10.95;;;3.50;;
8279;SDS011;8335;42.646;23.380;2023-07-20T04:28:37;13.25;;;4.20;;
8279;SDS011;8335;42.646;23.380;2023-07-20T04:31:11;14.60;;;4.25;;
8279;SDS011;8335;42.646;23.380;2023-07-20T04:33:38;12.70;;;3.90;;
8279;SDS011;8335;42.646;23.380;2023-07-20T04:36:05;11.00;;;4.43;;
8279;SDS011;8335;42.646;23.380;2023-07-20T04:38:32;18.63;;;4.85;;
8279;SDS011;8335;42.646;23.380;2023-07-20T04:41:00;9.77;;;4.50;;
8279;SDS011;8335;42.646;23.380;2023-07-20T04:43:28;8.23;;;4.25;;
8279;SDS011;8335;42.646;23.380;2023-07-20T04:45:55;11.98;;;4.38;;
8279;SDS011;8335;42.646;23.380;2023-07-20T04:48:22;10.35;;;4.07;;
8279;SDS011;8335;42.646;23.380;2023-07-20T04:50:49;13.20;;;4.00;;
8279;SDS011;8335;42.646;23.380;2023-07-20T04:53:16;13.13;;;3.92;;
8279;SDS011;8335;42.646;23.380;2023-07-20T04:55:47;5.75;;;3.42;;
8279;SDS011;8335;42.646;23.380;2023-07-20T04:58:17;10.25;;;3.90;;
8279;SDS011;8335;42.646;23.380;2023-07-20T05:00:43;14.43;;;4.05;;
8279;SDS011;8335;42.646;23.380;2023-07-20T05:03:10;7.63;;;3.88;;
8279;SDS011;8335;42.646;23.380;2023-07-20T05:05:37;5.95;;;3.33;;
8279;SDS011;8335;42.646;23.380;2023-07-20T05:08:04;9.30;;;3.65;;
8279;SDS011;8335;42.646;23.380;2023-07-20T05:10:31;11.30;;;4.13;;
8279;SDS011;8335;42.646;23.380;2023-07-20T05:12:58;7.03;;;3.55;;
8279;SDS011;8335;42.646;23.380;2023-07-20T05:15:26;10.73;;;3.72;;
8279;SDS011;8335;42.646;23.380;2023-07-20T05:17:53;6.47;;;3.25;;
8279;SDS011;8335;42.646;23.380;2023-07-20T05:20:19;6.90;;;3.60;;
8279;SDS011;8335;42.646;23.380;2023-07-20T05:22:46;9.43;;;3.38;;
8279;SDS011;8335;42.646;23.380;2023-07-20T05:25:13;7.97;;;3.90;;
8279;SDS011;8335;42.646;23.380;2023-07-20T05:27:42;8.98;;;3.78;;
8279;SDS011;8335;42.646;23.380;2023-07-20T05:30:09;12.23;;;3.80;;
8279;SDS011;8335;42.646;23.380;2023-07-20T05:32:38;12.40;;;4.32;;
8279;SDS011;8335;42.646;23.380;2023-07-20T05:35:05;11.45;;;3.78;;
8279;SDS011;8335;42.646;23.380;2023-07-20T05:37:33;7.60;;;3.53;;
8279;SDS011;8335;42.646;23.380;2023-07-20T05:40:00;14.75;;;4.10;;
8279;SDS011;8335;42.646;23.380;2023-07-20T05:42:27;9.18;;;3.90;;
8279;SDS011;8335;42.646;23.380;2023-07-20T05:44:54;11.05;;;3.53;;
8279;SDS011;8335;42.646;23.380;2023-07-20T05:47:20;8.93;;;3.40;;
8279;SDS011;8335;42.646;23.380;2023-07-20T05:49:49;10.77;;;3.65;;
8279;SDS011;8335;42.646;23.380;2023-07-20T05:52:16;11.07;;;3.08;;
8279;SDS011;8335;42.646;23.380;2023-07-20T05:54:42;10.88;;;3.58;;
8279;SDS011;8335;42.646;23.380;2023-07-20T05:57:09;8.27;;;3.33;;
8279;SDS011;8335;42.646;23.380;2023-07-20T05:59:36;11.85;;;3.45;;
8279;SDS011;8335;42.646;23.380;2023-07-20T06:02:05;7.13;;;3.35;;
8279;SDS011;8335;42.646;23.380;2023-07-20T06:04:33;11.65;;;3.25;;
8279;SDS011;8335;42.646;23.380;2023-07-20T06:07:01;10.57;;;3.03;;
8279;SDS011;8335;42.646;23.380;2023-07-20T06:09:28;12.25;;;3.58;;
8279;SDS011;8335;42.646;23.380;2023-07-20T06:11:54;6.25;;;3.00;;
8279;SDS011;8335;42.646;23.380;2023-07-20T06:14:21;11.13;;;3.50;;
8279;SDS011;8335;42.646;23.380;2023-07-20T06:16:48;4.32;;;2.72;;
8279;SDS011;8335;42.646;23.380;2023-07-20T06:19:15;7.18;;;3.20;;
8279;SDS011;8335;42.646;23.380;2023-07-20T06:21:41;8.23;;;2.85;;
8279;SDS011;8335;42.646;23.380;2023-07-20T06:24:10;9.43;;;3.53;;
8279;SDS011;8335;42.646;23.380;2023-07-20T06:26:36;7.80;;;3.17;;
8279;SDS011;8335;42.646;23.380;2023-07-20T06:29:04;11.30;;;3.25;;
8279;SDS011;8335;42.646;23.380;2023-07-20T06:31:31;14.18;;;3.08;;
8279;SDS011;8335;42.646;23.380;2023-07-20T06:33:58;9.27;;;3.10;;
8279;SDS011;8335;42.646;23.380;2023-07-20T06:36:26;10.80;;;3.17;;
8279;SDS011;8335;42.646;23.380;2023-07-20T06:38:53;10.93;;;3.33;;
8279;SDS011;8335;42.646;23.380;2023-07-20T06:41:21;11.50;;;3.95;;
8279;SDS011;8335;42.646;23.380;2023-07-20T06:43:48;10.40;;;3.55;;
8279;SDS011;8335;42.646;23.380;2023-07-20T06:46:17;15.43;;;4.00;;
8279;SDS011;8335;42.646;23.380;2023-07-20T06:48:44;15.13;;;4.05;;
8279;SDS011;8335;42.646;23.380;2023-07-20T06:51:11;14.25;;;3.78;;
8279;SDS011;8335;42.646;23.380;2023-07-20T06:53:37;14.75;;;3.97;;
8279;SDS011;8335;42.646;23.380;2023-07-20T06:56:04;15.90;;;4.10;;
8279;SDS011;8335;42.646;23.380;2023-07-20T06:58:32;17.92;;;4.10;;
8279;SDS011;8335;42.646;23.380;2023-07-20T07:01:04;14.55;;;3.50;;
8279;SDS011;8335;42.646;23.380;2023-07-20T07:03:31;11.18;;;3.85;;
8279;SDS011;8335;42.646;23.380;2023-07-20T07:05:58;14.65;;;3.92;;
8279;SDS011;8335;42.646;23.380;2023-07-20T07:08:25;14.95;;;3.53;;
8279;SDS011;8335;42.646;23.380;2023-07-20T07:10:52;15.57;;;4.53;;
8279;SDS011;8335;42.646;23.380;2023-07-20T07:13:19;9.68;;;3.80;;
8279;SDS011;8335;42.646;23.380;2023-07-20T07:15:47;13.65;;;4.13;;
8279;SDS011;8335;42.646;23.380;2023-07-20T07:18:14;15.00;;;4.03;;
8279;SDS011;8335;42.646;23.380;2023-07-20T07:20:40;11.70;;;4.13;;
8279;SDS011;8335;42.646;23.380;2023-07-20T07:23:07;13.55;;;3.83;;
8279;SDS011;8335;42.646;23.380;2023-07-20T07:25:34;13.75;;;4.13;;
8279;SDS011;8335;42.646;23.380;2023-07-20T07:28:01;16.70;;;5.13;;
8279;SDS011;8335;42.646;23.380;2023-07-20T07:30:27;10.50;;;4.70;;
8279;SDS011;8335;42.646;23.380;2023-07-20T07:32:55;13.45;;;4.55;;
8279;SDS011;8335;42.646;23.380;2023-07-20T07:35:22;13.65;;;5.13;;
8279;SDS011;8335;42.646;23.380;2023-07-20T07:37:49;12.63;;;4.70;;
8279;SDS011;8335;42.646;23.380;2023-07-20T07:40:16;18.67;;;5.68;;
8279;SDS011;8335;42.646;23.380;2023-07-20T07:42:43;12.45;;;4.90;;
8279;SDS011;8335;42.646;23.380;2023-07-20T07:45:10;13.00;;;5.65;;
8279;SDS011;8335;42.646;23.380;2023-07-20T07:47:38;17.85;;;7.22;;
8279;SDS011;8335;42.646;23.380;2023-07-20T07:50:06;16.85;;;5.32;;
8279;SDS011;8335;42.646;23.380;2023-07-20T07:52:33;11.40;;;4.45;;
8279;SDS011;8335;42.646;23.380;2023-07-20T07:55:00;13.50;;;4.30;;
8279;SDS011;8335;42.646;23.380;2023-07-20T07:57:29;15.32;;;4.55;;
8279;SDS011;8335;42.646;23.380;2023-07-20T07:59:56;14.00;;;4.35;;
8279;SDS011;8335;42.646;23.380;2023-07-20T08:02:22;13.57;;;4.22;;
8279;SDS011;8335;42.646;23.380;2023-07-20T08:04:49;14.65;;;4.28;;
8279;SDS011;8335;42.646;23.380;2023-07-20T08:07:18;9.60;;;4.20;;
8279;SDS011;8335;42.646;23.380;2023-07-20T08:09:45;10.27;;;4.25;;
8279;SDS011;8335;42.646;23.380;2023-07-20T08:12:12;16.00;;;4.20;;
8279;SDS011;8335;42.646;23.380;2023-07-20T08:14:39;17.02;;;4.15;;
8279;SDS011;8335;42.646;23.380;2023-07-20T08:17:06;11.93;;;3.80;;
8279;SDS011;8335;42.646;23.380;2023-07-20T08:19:33;16.95;;;4.78;;
8279;SDS011;8335;42.646;23.380;2023-07-20T08:22:00;15.05;;;5.38;;
8279;SDS011;8335;42.646;23.380;2023-07-20T08:24:28;12.65;;;4.45;;
8279;SDS011;8335;42.646;23.380;2023-07-20T08:26:55;16.25;;;4.50;;
8279;SDS011;8335;42.646;23.380;2023-07-20T08:29:22;16.00;;;4.05;;
8279;SDS011;8335;42.646;23.380;2023-07-20T08:31:48;11.82;;;3.90;;
8279;SDS011;8335;42.646;23.380;2023-07-20T08:34:15;10.65;;;3.75;;
8279;SDS011;8335;42.646;23.380;2023-07-20T08:36:42;10.48;;;4.55;;
8279;SDS011;8335;42.646;23.380;2023-07-20T08:39:09;10.90;;;3.55;;
8279;SDS011;8335;42.646;23.380;2023-07-20T08:41:37;11.68;;;3.08;;
8279;SDS011;8335;42.646;23.380;2023-07-20T08:44:04;9.93;;;3.20;;
8279;SDS011;8335;42.646;23.380;2023-07-20T08:46:32;12.90;;;3.25;;
8279;SDS011;8335;42.646;23.380;2023-07-20T08:49:01;10.60;;;3.03;;
8279;SDS011;8335;42.646;23.380;2023-07-20T08:51:28;9.60;;;3.17;;
8279;SDS011;8335;42.646;23.380;2023-07-20T08:53:56;10.98;;;2.97;;
8279;SDS011;8335;42.646;23.380;2023-07-20T08:56:24;14.32;;;3.45;;
8279;SDS011;8335;42.646;23.380;2023-07-20T08:58:53;9.68;;;2.80;;
8279;SDS011;8335;42.646;23.380;2023-07-20T09:01:20;9.45;;;3.28;;
8279;SDS011;8335;42.646;23.380;2023-07-20T09:03:48;9.40;;;3.25;;
8279;SDS011;8335;42.646;23.380;2023-07-20T09:06:15;14.07;;;3.45;;
8279;SDS011;8335;42.646;23.380;2023-07-20T09:08:42;11.18;;;2.80;;
8279;SDS011;8335;42.646;23.380;2023-07-20T09:11:11;10.35;;;2.85;;
8279;SDS011;8335;42.646;23.380;2023-07-20T09:13:38;12.10;;;3.10;;
8279;SDS011;8335;42.646;23.380;2023-07-20T09:16:06;11.88;;;2.95;;
8279;SDS011;8335;42.646;23.380;2023-07-20T09:18:33;11.07;;;2.97;;
8279;SDS011;8335;42.646;23.380;2023-07-20T09:21:03;12.00;;;3.00;;
8279;SDS011;8335;42.646;23.380;2023-07-20T09:23:32;17.17;;;3.50;;
8279;SDS011;8335;42.646;23.380;2023-07-20T09:25:59;8.73;;;2.88;;
8279;SDS011;8335;42.646;23.380;2023-07-20T09:28:26;6.97;;;3.28;;
8279;SDS011;8335;42.646;23.380;2023-07-20T09:30:54;10.38;;;3.10;;
8279;SDS011;8335;42.646;23.380;2023-07-20T09:33:26;12.88;;;2.90;;
8279;SDS011;8335;42.646;23.380;2023-07-20T09:35:53;7.28;;;2.47;;
8279;SDS011;8335;42.646;23.380;2023-07-20T09:38:20;9.77;;;3.08;;
8279;SDS011;8335;42.646;23.380;2023-07-20T09:40:50;10.10;;;3.17;;
8279;SDS011;8335;42.646;23.380;2023-07-20T09:43:18;8.15;;;3.00;;
8279;SDS011;8335;42.646;23.380;2023-07-20T09:45:45;6.88;;;2.80;;
8279;SDS011;8335;42.646;23.380;2023-07-20T09:48:12;4.90;;;2.75;;
8279;SDS011;8335;42.646;23.380;2023-07-20T09:50:41;6.95;;;2.90;;
8279;SDS011;8335;42.646;23.380;2023-07-20T09:53:11;5.70;;;2.58;;
8279;SDS011;8335;42.646;23.380;2023-07-20T09:55:39;8.32;;;2.30;;
8279;SDS011;8335;42.646;23.380;2023-07-20T09:58:08;9.02;;;2.80;;
8279;SDS011;8335;42.646;23.380;2023-07-20T10:00:35;12.07;;;2.90;;
8279;SDS011;8335;42.646;23.380;2023-07-20T10:03:04;7.68;;;2.47;;
8279;SDS011;8335;42.646;23.380;2023-07-20T10:05:32;12.48;;;2.92;;
8279;SDS011;8335;42.646;23.380;2023-07-20T10:08:02;9.93;;;2.90;;
8279;SDS011;8335;42.646;23.380;2023-07-20T10:10:31;14.98;;;3.17;;
8279;SDS011;8335;42.646;23.380;2023-07-20T10:13:00;8.63;;;3.20;;
8279;SDS011;8335;42.646;23.380;2023-07-20T10:15:30;15.63;;;2.92;;
8279;SDS011;8335;42.646;23.380;2023-07-20T10:18:02;11.13;;;2.97;;
8279;SDS011;8335;42.646;23.380;2023-07-20T10:20:35;10.75;;;2.90;;
8279;SDS011;8335;42.646;23.380;2023-07-20T10:23:07;7.35;;;2.80;;
8279;SDS011;8335;42.646;23.380;2023-07-20T10:25:35;7.88;;;3.03;;
8279;SDS011;8335;42.646;23.380;2023-07-20T10:28:03;5.95;;;2.95;;
8279;SDS011;8335;42.646;23.380;2023-07-20T10:30:31;7.57;;;3.10;;
8279;SDS011;8335;42.646;23.380;2023-07-20T10:32:59;8.73;;;2.70;;
8279;SDS011;8335;42.646;23.380;2023-07-20T10:35:28;10.75;;;3.80;;
8279;SDS011;8335;42.646;23.380;2023-07-20T10:37:55;7.13;;;2.83;;
8279;SDS011;8335;42.646;23.380;2023-07-20T10:40:29;9.38;;;2.65;;
8279;SDS011;8335;42.646;23.380;2023-07-20T10:43:01;7.45;;;2.60;;
8279;SDS011;8335;42.646;23.380;2023-07-20T10:45:42;8.68;;;2.60;;
8279;SDS011;8335;42.646;23.380;2023-07-20T10:48:14;13.75;;;3.20;;
8279;SDS011;8335;42.646;23.380;2023-07-20T10:50:42;8.70;;;2.78;;
8279;SDS011;8335;42.646;23.380;2023-07-20T10:53:10;7.15;;;2.50;;
8279;SDS011;8335;42.646;23.380;2023-07-20T10:55:39;10.85;;;2.78;;
8279;SDS011;8335;42.646;23.380;2023-07-20T10:58:07;14.95;;;5.22;;
8279;SDS011;8335;42.646;23.380;2023-07-20T11:00:35;8.45;;;3.55;;
8279;SDS011;8335;42.646;23.380;2023-07-20T11:03:02;9.32;;;2.90;;
8279;SDS011;8335;42.646;23.380;2023-07-20T11:05:32;9.52;;;2.90;;
8279;SDS011;8335;42.646;23.380;2023-07-20T11:08:04;11.13;;;3.20;;
8279;SDS011;8335;42.646;23.380;2023-07-20T11:10:31;7.55;;;2.78;;
8279;SDS011;8335;42.646;23.380;2023-07-20T11:16:03;6.70;;;3.03;;
8279;SDS011;8335;42.646;23.380;2023-07-20T11:18:33;9.55;;;2.80;;
8279;SDS011;8335;42.646;23.380;2023-07-20T11:21:00;13.55;;;3.42;;
8279;SDS011;8335;42.646;23.380;2023-07-20T11:23:28;7.40;;;3.03;;
8279;SDS011;8335;42.646;23.380;2023-07-20T11:25:58;10.80;;;2.83;;
8279;SDS011;8335;42.646;23.380;2023-07-20T11:28:26;11.45;;;3.50;;
8279;SDS011;8335;42.646;23.380;2023-07-20T11:30:56;10.88;;;3.10;;
8279;SDS011;8335;42.646;23.380;2023-07-20T11:33:23;8.85;;;3.65;;
8279;SDS011;8335;42.646;23.380;2023-07-20T11:35:49;7.53;;;3.00;;
8279;SDS011;8335;42.646;23.380;2023-07-20T11:38:18;9.32;;;3.78;;
8279;SDS011;8335;42.646;23.380;2023-07-20T11:40:45;6.88;;;3.85;;
8279;SDS011;8335;42.646;23.380;2023-07-20T11:43:12;8.77;;;4.00;;
8279;SDS011;8335;42.646;23.380;2023-07-20T11:45:40;9.95;;;4.15;;
8279;SDS011;8335;42.646;23.380;2023-07-20T11:48:13;11.77;;;4.53;;
8279;SDS011;8335;42.646;23.380;2023-07-20T11:50:41;8.40;;;3.95;;
8279;SDS011;8335;42.646;23.380;2023-07-20T11:53:07;10.32;;;4.30;;
8279;SDS011;8335;42.646;23.380;2023-07-20T11:55:35;10.10;;;4.57;;
8279;SDS011;8335;42.646;23.380;2023-07-20T11:58:02;10.00;;;4.78;;
8279;SDS011;8335;42.646;23.380;2023-07-20T12:00:29;8.75;;;4.45;;
8279;SDS011;8335;42.646;23.380;2023-07-20T12:02:58;11.70;;;4.80;;
8279;SDS011;8335;42.646;23.380;2023-07-20T12:05:25;7.32;;;4.70;;
8279;SDS011;8335;42.646;23.380;2023-07-20T12:07:52;13.98;;;4.78;;
8279;SDS011;8335;42.646;23.380;2023-07-20T12:10:23;12.93;;;4.60;;
8279;SDS011;8335;42.646;23.380;2023-07-20T12:12:52;10.90;;;4.40;;
8279;SDS011;8335;42.646;23.380;2023-07-20T12:15:20;8.93;;;3.70;;
8279;SDS011;8335;42.646;23.380;2023-07-20T12:17:49;10.05;;;4.57;;
8279;SDS011;8335;42.646;23.380;2023-07-20T12:20:26;8.40;;;4.10;;
8279;SDS011;8335;42.646;23.380;2023-07-20T12:22:55;18.15;;;4.53;;
8279;SDS011;8335;42.646;23.380;2023-07-20T12:25:23;12.60;;;4.72;;
8279;SDS011;8335;42.646;23.380;2023-07-20T12:28:00;7.85;;;4.00;;
8279;SDS011;8335;42.646;23.380;2023-07-20T12:30:28;9.27;;;4.43;;
8279;SDS011;8335;42.646;23.380;2023-07-20T12:32:54;9.23;;;3.95;;
8279;SDS011;8335;42.646;23.380;2023-07-20T12:35:21;7.03;;;3.88;;
8279;SDS011;8335;42.646;23.380;2023-07-20T12:37:49;6.68;;;3.10;;
8279;SDS011;8335;42.646;23.380;2023-07-20T12:40:16;9.40;;;3.55;;
8279;SDS011;8335;42.646;23.380;2023-07-20T12:42:43;7.68;;;3.25;;
8279;SDS011;8335;42.646;23.380;2023-07-20T12:45:10;9.70;;;3.25;;
8279;SDS011;8335;42.646;23.380;2023-07-20T12:47:38;9.43;;;3.53;;
8279;SDS011;8335;42.646;23.380;2023-07-20T12:50:06;7.47;;;3.00;;
8279;SDS011;8335;42.646;23.380;2023-07-20T12:52:35;9.20;;;3.38;;
8279;SDS011;8335;42.646;23.380;2023-07-20T12:55:04;6.00;;;2.90;;
8279;SDS011;8335;42.646;23.380;2023-07-20T12:57:32;8.65;;;3.70;;
8279;SDS011;8335;42.646;23.380;2023-07-20T12:59:59;14.60;;;3.78;;
8279;SDS011;8335;42.646;23.380;2023-07-20T13:02:26;10.27;;;3.08;;
8279;SDS011;8335;42.646;23.380;2023-07-20T13:04:53;10.52;;;3.42;;
8279;SDS011;8335;42.646;23.380;2023-07-20T13:07:23;13.45;;;3.47;;
8279;SDS011;8335;42.646;23.380;2023-07-20T13:09:56;10.48;;;3.17;;
8279;SDS011;8335;42.646;23.380;2023-07-20T13:12:26;10.00;;;3.10;;
8279;SDS011;8335;42.646;23.380;2023-07-20T13:14:54;10.30;;;3.40;;
8279;SDS011;8335;42.646;23.380;2023-07-20T13:17:20;10.68;;;3.63;;
8279;SDS011;8335;42.646;23.380;2023-07-20T13:19:47;10.52;;;3.63;;
8279;SDS011;8335;42.646;23.380;2023-07-20T13:22:14;11.43;;;3.47;;
8279;SDS011;8335;42.646;23.380;2023-07-20T13:24:41;8.55;;;3.53;;
8279;SDS011;8335;42.646;23.380;2023-07-20T13:27:07;10.65;;;3.92;;
8279;SDS011;8335;42.646;23.380;2023-07-20T13:29:35;8.13;;;3.20;;
8279;SDS011;8335;42.646;23.380;2023-07-20T13:32:02;8.15;;;2.95;;
8279;SDS011;8335;42.646;23.380;2023-07-20T13:34:30;11.32;;;3.25;;
8279;SDS011;8335;42.646;23.380;2023-07-20T13:36:57;11.07;;;3.67;;
8279;SDS011;8335;42.646;23.380;2023-07-20T13:39:23;8.45;;;3.13;;
8279;SDS011;8335;42.646;23.380;2023-07-20T13:41:52;8.23;;;3.28;;
8279;SDS011;8335;42.646;23.380;2023-07-20T13:44:19;10.18;;;2.97;;
8279;SDS011;8335;42.646;23.380;2023-07-20T13:46:48;8.50;;;2.90;;
8279;SDS011;8335;42.646;23.380;2023-07-20T13:49:14;7.18;;;2.65;;
8279;SDS011;8335;42.646;23.380;2023-07-20T13:51:41;10.25;;;2.90;;
8279;SDS011;8335;42.646;23.380;2023-07-20T13:54:08;12.63;;;3.17;;
8279;SDS011;8335;42.646;23.380;2023-07-20T13:56:36;13.55;;;2.85;;
8279;SDS011;8335;42.646;23.380;2023-07-20T13:59:03;7.28;;;2.67;;
8279;SDS011;8335;42.646;23.380;2023-07-20T14:01:30;10.05;;;2.88;;
8279;SDS011;8335;42.646;23.380;2023-07-20T14:04:00;12.05;;;3.72;;
8279;SDS011;8335;42.646;23.380;2023-07-20T14:06:29;9.52;;;3.15;;
8279;SDS011;8335;42.646;23.380;2023-07-20T14:08:57;9.35;;;3.33;;
8279;SDS011;8335;42.646;23.380;2023-07-20T14:11:24;11.00;;;3.08;;
8279;SDS011;8335;42.646;23.380;2023-07-20T14:13:51;12.57;;;3.63;;
8279;SDS011;8335;42.646;23.380;2023-07-20T14:16:18;10.45;;;3.22;;
8279;SDS011;8335;42.646;23.380;2023-07-20T14:18:45;11.63;;;2.60;;
8279;SDS011;8335;42.646;23.380;2023-07-20T14:21:15;7.43;;;2.90;;
8279;SDS011;8335;42.646;23.380;2023-07-20T14:23:42;10.57;;;2.88;;
8279;SDS011;8335;42.646;23.380;2023-07-20T14:26:08;10.57;;;2.80;;
8279;SDS011;8335;42.646;23.380;2023-07-20T14:28:35;11.52;;;3.03;;
8279;SDS011;8335;42.646;23.380;2023-07-20T14:31:02;10.30;;;2.85;;
8279;SDS011;8335;42.646;23.380;2023-07-20T14:33:30;12.88;;;3.38;;
8279;SDS011;8335;42.646;23.380;2023-07-20T14:35:56;12.85;;;3.25;;
8279;SDS011;8335;42.646;23.380;2023-07-20T14:38:25;11.32;;;2.83;;
8279;SDS011;8335;42.646;23.380;2023-07-20T14:40:52;7.47;;;2.40;;
8279;SDS011;8335;42.646;23.380;2023-07-20T14:43:18;10.15;;;2.75;;
8279;SDS011;8335;42.646;23.380;2023-07-20T14:45:45;10.05;;;3.08;;
8279;SDS011;8335;42.646;23.380;2023-07-20T14:48:12;12.73;;;3.05;;
8279;SDS011;8335;42.646;23.380;2023-07-20T14:50:38;12.10;;;3.25;;
8279;SDS011;8335;42.646;23.380;2023-07-20T14:53:05;8.05;;;3.03;;
8279;SDS011;8335;42.646;23.380;2023-07-20T14:55:34;13.18;;;3.00;;
8279;SDS011;8335;42.646;23.380;2023-07-20T14:58:00;10.77;;;2.50;;
8279;SDS011;8335;42.646;23.380;2023-07-20T15:00:28;8.48;;;2.63;;